Time;durP1;ratioP1;P1;durP2;ratioP2;P2;SDS_P1;SDS_P2;PMS_P1;PMS_P2;Temp;Humidity;BMP_temperature;BMP_pressure;BME280_temperature;BME280_humidity;BME280_pressure;Samples;Min_cycle;Max_cycle;Signal;HPM_P1;HPM_P2
2022/07/12 00:01:50;;;;;;;0.10;0.10;;;17.90;99.90;;;;;;5012631;28;20022;-72
2022/07/12 00:04:16;;;;;;;0.10;0.10;;;17.70;99.90;;;;;;5011316;28;20025;-72
2022/07/12 00:06:42;;;;;;;0.10;0.10;;;17.80;99.90;;;;;;4994771;28;20032;-72
2022/07/12 00:09:08;;;;;;;0.10;0.10;;;17.80;99.90;;;;;;5012475;28;20072;-72
2022/07/12 00:11:35;;;;;;;0.00;0.00;;;17.90;99.90;;;;;;5012411;28;20488;-72
2022/07/12 00:14:02;;;;;;;0.00;0.00;;;17.90;99.90;;;;;;5012452;28;20107;-72
2022/07/12 00:16:27;;;;;;;0.00;0.00;;;17.90;99.90;;;;;;5012385;28;20030;-72
2022/07/12 00:18:53;;;;;;;0.10;0.10;;;17.80;99.90;;;;;;5012431;28;20052;-72
2022/07/12 00:21:20;;;;;;;0.10;0.10;;;17.90;99.90;;;;;;5012357;28;20040;-72
2022/07/12 00:23:45;;;;;;;0.10;0.10;;;17.90;99.90;;;;;;4994829;28;20030;-72
2022/07/12 00:26:11;;;;;;;0.10;0.10;;;17.90;99.90;;;;;;4994729;28;20022;-72
2022/07/12 00:28:37;;;;;;;0.10;0.10;;;18.00;99.90;;;;;;5012330;28;20032;-72
2022/07/12 00:31:03;;;;;;;0.10;0.10;;;18.10;99.90;;;;;;5013528;28;20025;-72
2022/07/12 00:33:29;;;;;;;0.10;0.10;;;18.00;99.90;;;;;;5016301;28;20516;-72
2022/07/12 00:35:55;;;;;;;0.10;0.10;;;17.90;99.90;;;;;;5016391;28;20057;-72
2022/07/12 00:38:21;;;;;;;0.00;0.00;;;17.90;99.90;;;;;;5016245;28;20030;-72
2022/07/12 00:40:46;;;;;;;0.10;0.10;;;17.90;99.90;;;;;;5016360;28;20438;-71
2022/07/12 00:43:12;;;;;;;0.10;0.10;;;17.80;99.90;;;;;;5016192;28;20366;-72
2022/07/12 00:45:38;;;;;;;0.10;0.10;;;17.50;99.90;;;;;;5016152;28;20060;-72
2022/07/12 00:48:05;;;;;;;0.10;0.10;;;17.50;99.90;;;;;;5016194;28;20021;-72
2022/07/12 00:50:31;;;;;;;0.10;0.10;;;17.40;99.90;;;;;;5015940;28;20436;-71
2022/07/12 00:52:57;;;;;;;0.10;0.10;;;17.60;99.90;;;;;;5016002;28;20076;-72
2022/07/12 00:55:24;;;;;;;0.10;0.10;;;17.70;99.90;;;;;;5016079;28;20034;-72
2022/07/12 00:57:50;;;;;;;0.10;0.10;;;17.60;99.90;;;;;;5016082;28;20436;-72
2022/07/12 01:00:25;;;;;;;0.10;0.10;;;17.50;99.90;;;;;;5015844;28;20037;-72
2022/07/12 01:02:53;;;;;;;0.10;0.10;;;17.50;99.90;;;;;;5015732;28;20032;-72
2022/07/12 01:05:19;;;;;;;0.10;0.10;;;17.30;99.90;;;;;;5015743;28;20073;-72
2022/07/12 01:07:45;;;;;;;0.15;0.15;;;17.00;99.90;;;;;;5015690;28;20030;-72
2022/07/12 01:10:11;;;;;;;0.65;0.65;;;16.90;99.90;;;;;;4981824;28;20033;-72
2022/07/12 01:12:37;;;;;;;0.20;0.20;;;17.00;99.90;;;;;;5014414;28;20030;-72
2022/07/12 01:15:06;;;;;;;0.10;0.10;;;17.10;99.90;;;;;;5015897;28;20018;-71
2022/07/12 01:17:34;;;;;;;0.10;0.10;;;17.10;99.90;;;;;;5042115;22;20050;-90
2022/07/12 01:20:51;;;;;;;0.10;0.10;;;17.20;99.90;;;;;;4986613;28;20067;-89
2022/07/12 01:23:26;;;;;;;0.10;0.10;;;17.50;99.90;;;;;;4998030;28;20037;-92
2022/07/12 01:25:55;;;;;;;0.10;0.10;;;17.50;99.90;;;;;;4998793;28;20226;-92
2022/07/12 01:28:27;;;;;;;0.10;0.10;;;17.20;99.90;;;;;;4998821;28;20021;-90
2022/07/12 01:31:12;;;;;;;0.00;0.00;;;17.20;99.90;;;;;;4982295;28;20029;-93
2022/07/12 01:55:31;;;;;;;0.25;0.25;;;17.30;99.90;;;;;;4997229;28;20097;-90
2022/07/12 01:58:01;;;;;;;0.10;0.10;;;17.30;99.90;;;;;;4980697;28;20080;-90
2022/07/12 02:00:40;;;;;;;0.10;0.10;;;17.20;99.90;;;;;;4980005;28;20384;-90
2022/07/12 02:03:06;;;;;;;0.20;0.20;;;17.30;99.90;;;;;;4980420;28;20038;-90
2022/07/12 02:05:32;;;;;;;0.20;0.20;;;17.40;99.90;;;;;;4981447;28;20125;-90
2022/07/12 02:08:06;;;;;;;0.10;0.10;;;17.20;99.90;;;;;;4981882;28;20060;-90
2022/07/12 02:26:13;;;;;;;0.10;0.10;;;16.80;99.90;;;;;;4974136;28;20575;-89
2022/07/12 02:28:39;;;;;;;0.10;0.10;;;17.10;99.90;;;;;;4973855;28;20088;-89
2022/07/12 02:31:08;;;;;;;0.10;0.10;;;17.10;99.90;;;;;;4983080;28;20034;-90
2022/07/12 02:33:34;;;;;;;0.10;0.10;;;17.20;99.90;;;;;;4997500;28;20029;-89
2022/07/12 02:36:00;;;;;;;0.10;0.10;;;17.20;99.90;;;;;;5006372;28;20040;-89
2022/07/12 02:38:26;;;;;;;0.10;0.10;;;17.20;99.90;;;;;;5003440;28;20010;-89
2022/07/12 02:40:54;;;;;;;0.00;0.00;;;17.00;99.90;;;;;;4992084;28;20025;-90
2022/07/12 02:43:29;;;;;;;0.10;0.10;;;17.10;99.90;;;;;;4996966;28;20049;-89
2022/07/12 02:46:08;;;;;;;0.10;0.10;;;17.00;99.90;;;;;;4997421;28;20371;-89
2022/07/12 02:48:34;;;;;;;0.10;0.10;;;17.10;99.90;;;;;;4980890;28;20073;-89
2022/07/12 02:51:01;;;;;;;0.10;0.10;;;17.10;99.90;;;;;;4997050;28;20050;-90
2022/07/12 02:53:26;;;;;;;0.10;0.10;;;17.00;99.90;;;;;;4996658;28;20116;-90
2022/07/12 02:56:06;;;;;;;0.10;0.10;;;17.10;99.90;;;;;;4980690;28;20109;-90
2022/07/12 02:58:34;;;;;;;0.10;0.10;;;17.10;99.90;;;;;;4981174;28;20032;-90
2022/07/12 03:00:59;;;;;;;0.17;0.17;;;17.10;99.90;;;;;;4996596;28;20029;-90
2022/07/12 03:03:58;;;;;;;;;;;;;;;;;;;;;
2022/07/12 03:06:40;;;;;;;0.10;0.10;;;16.90;99.90;;;;;;5014266;28;20072;-89
2022/07/12 03:09:08;;;;;;;0.10;0.10;;;17.00;99.90;;;;;;4980320;28;20117;-89
2022/07/12 03:11:43;;;;;;;0.10;0.10;;;17.10;99.90;;;;;;4981152;28;20045;-89
2022/07/12 03:14:08;;;;;;;0.32;0.32;;;17.00;99.90;;;;;;4997101;28;20037;-89
2022/07/12 03:16:34;;;;;;;0.00;0.00;;;16.80;99.90;;;;;;4980737;28;20030;-90
2022/07/12 03:19:03;;;;;;;0.10;0.10;;;16.80;99.90;;;;;;5002186;28;20034;-89
2022/07/12 03:22:26;;;;;;;0.10;0.10;;;16.80;99.90;;;;;;4996443;28;20026;-89
2022/07/12 03:25:12;;;;;;;0.10;0.10;;;16.70;99.90;;;;;;5011935;28;20034;-90
2022/07/12 03:27:39;;;;;;;0.10;0.10;;;16.60;99.90;;;;;;5010995;28;20036;-89
2022/07/12 03:30:06;;;;;;;0.10;0.10;;;16.50;99.90;;;;;;5002391;28;20026;-90
2022/07/12 03:32:32;;;;;;;0.10;0.10;;;16.40;99.90;;;;;;4996950;28;20439;-90
2022/07/12 03:34:58;;;;;;;0.10;0.10;;;16.20;99.90;;;;;;4996405;28;20025;-89
2022/07/12 03:37:27;;;;;;;0.13;0.13;;;16.30;99.90;;;;;;4980198;28;20024;-90
2022/07/12 03:39:53;;;;;;;0.10;0.10;;;16.40;99.90;;;;;;4996121;28;20025;-90
2022/07/12 03:42:22;;;;;;;0.10;0.10;;;16.40;99.90;;;;;;4996936;28;20060;-89
2022/07/12 03:44:47;;;;;;;0.10;0.10;;;16.30;99.90;;;;;;4980044;28;20057;-89
2022/07/12 03:47:13;;;;;;;1.00;0.95;;;16.10;99.90;;;;;;4979740;28;20527;-90
2022/07/12 03:49:39;;;;;;;0.10;0.10;;;16.00;99.90;;;;;;4996187;28;20029;-89
2022/07/12 03:52:05;;;;;;;0.10;0.10;;;16.10;99.90;;;;;;4979910;28;20049;-89
2022/07/12 03:57:49;;;;;;;0.10;0.10;;;15.60;99.90;;;;;;4975021;28;20541;-90
2022/07/12 04:01:13;;;;;;;0.10;0.10;;;15.60;99.90;;;;;;4979055;28;20038;-89
2022/07/12 04:03:45;;;;;;;0.17;0.17;;;15.80;99.90;;;;;;4996095;28;20084;-89
2022/07/12 04:06:24;;;;;;;0.20;0.20;;;15.90;99.90;;;;;;4997168;28;20046;-90
2022/07/12 04:08:57;;;;;;;0.10;0.10;;;15.60;99.90;;;;;;4995956;28;20025;-90
2022/07/12 04:11:23;;;;;;;0.20;0.20;;;15.50;99.90;;;;;;4996333;28;20113;-90
2022/07/12 04:13:49;;;;;;;0.10;0.10;;;15.40;99.90;;;;;;4996056;28;20447;-90
2022/07/12 04:16:15;;;;;;;0.10;0.10;;;15.40;99.90;;;;;;4979690;28;20386;-90
2022/07/12 04:18:41;;;;;;;0.20;0.20;;;15.30;99.90;;;;;;4979570;28;20061;-90
2022/07/12 04:21:51;;;;;;;0.20;0.20;;;15.40;99.90;;;;;;4979964;28;20045;-89
2022/07/12 04:41:01;;;;;;;0.15;0.15;;;16.10;99.90;;;;;;4937082;29;20079;-92
2022/07/12 04:44:17;;;;;;;0.10;0.10;;;16.20;99.90;;;;;;4968229;28;20046;-89
2022/07/12 04:55:10;;;;;;;0.10;0.10;;;15.90;99.90;;;;;;4972782;28;20034;-89
2022/07/12 05:01:37;;;;;;;0.20;0.10;;;16.40;99.90;;;;;;4972436;28;20033;-89
2022/07/12 05:08:22;;;;;;;0.10;0.10;;;16.50;99.90;;;;;;4953018;29;20144;-89
2022/07/12 05:10:56;;;;;;;0.10;0.10;;;16.60;99.90;;;;;;4950556;29;20041;-89
2022/07/12 05:16:58;;;;;;;2.08;0.73;;;16.60;99.90;;;;;;5012993;28;20034;-89
2022/07/12 05:19:32;;;;;;;0.08;0.08;;;16.50;99.90;;;;;;4998185;28;20079;-89
2022/07/12 05:22:08;;;;;;;0.10;0.10;;;16.60;99.90;;;;;;4978499;28;20041;-90
2022/07/12 05:25:45;;;;;;;0.20;0.20;;;16.70;99.90;;;;;;4981691;28;20041;-90
2022/07/12 05:28:38;;;;;;;0.70;0.30;;;16.90;99.90;;;;;;4970328;28;20415;-89
2022/07/12 05:31:14;;;;;;;0.10;0.10;;;17.10;99.90;;;;;;4969864;28;20041;-90
2022/07/12 05:37:04;;;;;;;0.10;0.10;;;17.40;99.90;;;;;;5061496;22;20029;-74
2022/07/12 05:39:30;;;;;;;0.43;0.43;;;17.30;99.90;;;;;;5036266;28;20040;-74
2022/07/12 05:41:56;;;;;;;0.10;0.10;;;17.50;99.90;;;;;;5037357;28;20036;-73
2022/07/12 05:44:22;;;;;;;0.10;0.10;;;17.50;99.90;;;;;;5036328;28;20033;-74
2022/07/12 05:46:48;;;;;;;0.15;0.15;;;17.70;99.90;;;;;;5053730;28;20025;-73
2022/07/12 05:49:14;;;;;;;0.10;0.10;;;18.00;99.90;;;;;;5053048;28;20029;-74
2022/07/12 05:54:24;;;;;;;0.17;0.17;;;18.00;99.90;;;;;;5054114;28;20489;-74
2022/07/12 05:56:50;;;;;;;0.10;0.10;;;17.80;99.90;;;;;;5054430;28;20115;-73
2022/07/12 05:59:17;;;;;;;0.08;0.08;;;17.80;99.90;;;;;;5026030;28;20066;-74
2022/07/12 06:01:43;;;;;;;0.10;0.10;;;17.80;99.90;;;;;;5014698;28;20021;-74
2022/07/12 06:04:09;;;;;;;0.10;0.10;;;18.00;99.90;;;;;;5032622;28;20022;-73
2022/07/12 06:06:34;;;;;;;0.10;0.10;;;18.00;99.90;;;;;;5051560;28;20029;-73
2022/07/12 06:09:00;;;;;;;0.57;0.57;;;18.00;99.90;;;;;;5050268;28;20183;-74
2022/07/12 06:11:27;;;;;;;0.10;0.10;;;18.10;99.90;;;;;;5035305;28;20111;-74
2022/07/12 06:13:53;;;;;;;0.05;0.05;;;18.20;99.90;;;;;;5035988;28;20064;-73
2022/07/12 06:16:18;;;;;;;0.10;0.10;;;18.30;99.90;;;;;;5047406;28;20112;-74
2022/07/12 06:18:44;;;;;;;0.10;0.10;;;18.60;99.90;;;;;;5053999;28;20512;-74
2022/07/12 06:21:10;;;;;;;0.10;0.10;;;18.80;99.90;;;;;;5036007;28;20495;-74
2022/07/12 06:23:36;;;;;;;0.90;0.90;;;19.00;99.90;;;;;;5035909;28;20029;-74
2022/07/12 06:26:02;;;;;;;0.10;0.10;;;19.00;99.90;;;;;;5053662;28;20032;-74
2022/07/12 06:28:27;;;;;;;0.10;0.10;;;18.80;99.90;;;;;;5035452;28;20017;-74
2022/07/12 06:30:53;;;;;;;0.10;0.10;;;19.00;99.90;;;;;;5041695;28;20055;-74
2022/07/12 06:33:19;;;;;;;0.10;0.10;;;19.20;99.90;;;;;;5052696;28;20047;-73
2022/07/12 06:35:45;;;;;;;0.03;0.03;;;19.40;99.90;;;;;;5053295;28;20021;-74
2022/07/12 06:38:10;;;;;;;0.10;0.10;;;19.40;99.90;;;;;;5035653;28;20036;-74
2022/07/12 06:40:36;;;;;;;0.43;0.43;;;19.30;99.90;;;;;;5035433;28;20029;-74
2022/07/12 06:43:02;;;;;;;0.10;0.10;;;19.30;99.90;;;;;;5035539;28;20029;-74
2022/07/12 06:45:28;;;;;;;0.10;0.10;;;19.30;99.90;;;;;;5035898;28;20103;-74
2022/07/12 06:47:53;;;;;;;0.10;0.10;;;19.30;99.90;;;;;;5053536;28;20074;-73
2022/07/12 06:50:19;;;;;;;0.10;0.10;;;19.40;99.90;;;;;;5052772;28;20542;-74
2022/07/12 06:52:45;;;;;;;0.30;0.30;;;19.40;99.90;;;;;;5053437;28;20018;-74
2022/07/12 06:55:11;;;;;;;0.10;0.10;;;19.50;99.90;;;;;;5058546;28;20048;-78
2022/07/12 06:57:37;;;;;;;0.10;0.10;;;19.70;99.90;;;;;;5062728;28;20021;-74
2022/07/12 07:00:05;;;;;;;0.70;0.70;;;19.90;99.90;;;;;;5046690;28;20691;-77
2022/07/12 07:02:31;;;;;;;0.40;0.40;;;19.80;99.90;;;;;;5020808;28;20519;-78
2022/07/12 07:04:57;;;;;;;0.10;0.10;;;19.80;99.90;;;;;;5023796;28;20044;-77
2022/07/12 07:07:22;;;;;;;0.55;0.55;;;19.90;99.90;;;;;;5048276;28;20029;-77
2022/07/12 07:09:48;;;;;;;0.10;0.10;;;19.90;99.90;;;;;;5035200;28;20074;-77
2022/07/12 07:12:14;;;;;;;0.00;0.00;;;19.90;99.90;;;;;;5022555;28;20029;-77
2022/07/12 07:14:40;;;;;;;0.15;0.15;;;20.00;99.90;;;;;;5048945;28;20039;-76
2022/07/12 07:17:05;;;;;;;0.00;0.00;;;20.30;99.90;;;;;;5022551;28;20408;-78
2022/07/12 07:19:31;;;;;;;0.03;0.03;;;20.60;99.90;;;;;;5025464;28;20033;-78
2022/07/12 07:21:58;;;;;;;0.10;0.10;;;20.90;99.90;;;;;;5037411;28;20037;-76
2022/07/12 07:24:24;;;;;;;0.08;0.08;;;21.00;99.90;;;;;;5023545;28;20033;-78
2022/07/12 07:26:50;;;;;;;1.02;0.45;;;21.20;99.90;;;;;;5051203;28;20028;-78
2022/07/12 07:32:00;;;;;;;0.20;0.20;;;21.40;99.90;;;;;;5050558;28;20102;-77
2022/07/12 07:34:26;;;;;;;0.10;0.10;;;21.60;99.60;;;;;;5039076;28;20033;-77
2022/07/12 07:36:52;;;;;;;0.10;0.10;;;21.70;98.90;;;;;;5025987;28;20843;-76
2022/07/12 07:39:18;;;;;;;0.08;0.08;;;22.00;97.60;;;;;;5023679;28;20039;-77
2022/07/12 07:41:44;;;;;;;0.10;0.10;;;21.80;96.90;;;;;;5038955;28;20035;-78
2022/07/12 07:44:10;;;;;;;0.10;0.10;;;21.70;97.50;;;;;;5025655;28;20467;-78
2022/07/12 07:46:35;;;;;;;0.00;0.00;;;21.50;95.20;;;;;;5042220;28;20055;-77
2022/07/12 07:49:01;;;;;;;0.10;0.10;;;21.50;93.40;;;;;;5050664;28;20028;-77
2022/07/12 07:51:27;;;;;;;0.10;0.10;;;21.60;92.90;;;;;;5040157;28;20488;-78
2022/07/12 07:53:53;;;;;;;0.00;0.00;;;21.50;93.30;;;;;;5024157;28;20024;-78
2022/07/12 07:56:18;;;;;;;0.28;0.25;;;21.30;93.50;;;;;;5040344;28;20029;-77
2022/07/12 07:58:44;;;;;;;0.10;0.10;;;21.50;93.20;;;;;;5041541;28;20154;-76
2022/07/12 08:01:10;;;;;;;0.00;0.00;;;21.40;93.10;;;;;;5049635;28;20056;-77
2022/07/12 08:03:36;;;;;;;0.70;0.45;;;21.40;93.50;;;;;;5040395;28;20032;-77
2022/07/12 08:06:01;;;;;;;0.20;0.20;;;21.40;92.90;;;;;;5040285;28;20029;-77
2022/07/12 08:08:30;;;;;;;0.00;0.00;;;21.80;91.70;;;;;;5042981;28;20025;-76
2022/07/12 08:10:56;;;;;;;0.10;0.10;;;22.10;88.40;;;;;;5023984;28;20029;-76
2022/07/12 08:13:22;;;;;;;0.00;0.00;;;22.30;84.60;;;;;;5039550;28;20039;-77
2022/07/12 08:15:48;;;;;;;0.00;0.00;;;22.40;79.60;;;;;;5040837;28;20037;-75
2022/07/12 08:18:14;;;;;;;0.10;0.10;;;22.90;80.40;;;;;;5038228;28;20029;-76
2022/07/12 08:20:40;;;;;;;0.03;0.03;;;23.00;78.10;;;;;;5039923;28;20033;-77
2022/07/12 08:23:07;;;;;;;0.10;0.10;;;23.10;78.90;;;;;;5039012;28;20021;-78
2022/07/12 08:25:33;;;;;;;1.88;0.98;;;23.30;80.60;;;;;;5023269;28;20040;-76
2022/07/12 08:27:59;;;;;;;0.10;0.10;;;23.30;80.80;;;;;;5038784;28;20072;-77
2022/07/12 08:30:24;;;;;;;0.08;0.08;;;23.10;78.80;;;;;;5022234;28;20071;-77
2022/07/12 08:32:50;;;;;;;0.13;0.13;;;22.70;78.10;;;;;;5036991;28;20429;-77
2022/07/12 08:35:16;;;;;;;0.30;0.30;;;22.30;79.70;;;;;;5045012;28;20028;-77
2022/07/12 08:37:42;;;;;;;0.10;0.10;;;21.80;82.20;;;;;;5034286;28;20389;-78
2022/07/12 08:40:09;;;;;;;0.38;0.38;;;21.60;82.90;;;;;;5034981;28;20484;-80
2022/07/12 08:42:35;;;;;;;0.10;0.10;;;21.40;83.00;;;;;;5033710;28;20040;-77
2022/07/12 08:45:01;;;;;;;0.00;0.00;;;21.80;82.40;;;;;;5019206;28;20029;-77
2022/07/12 08:47:27;;;;;;;0.00;0.00;;;22.50;80.10;;;;;;5034377;28;20032;-77
2022/07/12 08:50:19;;;;;;;0.20;0.20;;;23.10;77.70;;;;;;5035861;28;20029;-78
2022/07/12 08:52:47;;;;;;;0.05;0.05;;;23.70;72.30;;;;;;5037220;28;20111;-77
2022/07/12 08:55:33;;;;;;;0.10;0.10;;;24.30;70.60;;;;;;5040258;28;20182;-77
2022/07/12 08:58:03;;;;;;;0.00;0.00;;;24.10;69.70;;;;;;5040625;28;20357;-78
2022/07/12 09:00:30;;;;;;;0.75;0.75;;;23.50;72.90;;;;;;5049347;28;20033;-78
2022/07/12 09:03:02;;;;;;;0.00;0.00;;;23.10;77.20;;;;;;5039395;22;20053;-78
2022/07/12 09:05:30;;;;;;;0.00;0.00;;;22.70;79.40;;;;;;5011526;28;20064;-79
2022/07/12 09:08:03;;;;;;;0.08;0.08;;;22.20;80.20;;;;;;5031049;28;20029;-78
2022/07/12 09:10:29;;;;;;;0.00;0.00;;;22.40;80.30;;;;;;5005855;28;20076;-77
2022/07/12 09:12:54;;;;;;;0.05;0.05;;;22.60;79.60;;;;;;5005559;28;21091;-78
2022/07/12 09:15:22;;;;;;;0.00;0.00;;;22.70;80.00;;;;;;5022708;28;20068;-78
2022/07/12 09:18:12;;;;;;;0.40;0.40;;;22.80;78.80;;;;;;5005420;28;20076;-77
2022/07/12 09:20:39;;;;;;;0.10;0.10;;;22.70;78.40;;;;;;5004655;28;20039;-78
2022/07/12 09:23:10;;;;;;;0.30;0.30;;;22.90;79.50;;;;;;5022338;28;20485;-78
2022/07/12 09:25:38;;;;;;;0.00;0.00;;;23.80;76.60;;;;;;5022584;28;20029;-78
2022/07/12 09:28:06;;;;;;;0.30;0.30;;;24.30;71.60;;;;;;5022787;28;20036;-77
2022/07/12 09:30:33;;;;;;;0.03;0.03;;;24.50;71.30;;;;;;5028865;28;20038;-78
2022/07/12 09:36:06;;;;;;;0.00;0.00;;;24.90;71.70;;;;;;5010781;28;20938;-78
2022/07/12 09:38:53;;;;;;;0.52;0.52;;;25.30;67.00;;;;;;4993626;28;20030;-79
2022/07/12 09:41:21;;;;;;;0.55;0.22;;;24.80;66.20;;;;;;4993646;28;20034;-79
2022/07/12 09:43:48;;;;;;;0.35;0.35;;;24.10;68.30;;;;;;5028055;28;20033;-79
2022/07/12 09:46:14;;;;;;;0.00;0.00;;;23.60;70.60;;;;;;5011425;28;20033;-79
2022/07/12 09:48:41;;;;;;;0.20;0.20;;;23.30;71.50;;;;;;5010646;28;20025;-79
2022/07/12 09:51:09;;;;;;;0.52;0.52;;;23.10;74.40;;;;;;5028962;28;20060;-79
2022/07/12 09:53:42;;;;;;;0.05;0.05;;;22.90;75.50;;;;;;5007670;28;20126;-79
2022/07/12 09:56:11;;;;;;;0.20;0.20;;;23.00;75.20;;;;;;5007937;28;20773;-79
2022/07/12 09:58:57;;;;;;;0.65;0.65;;;23.40;74.80;;;;;;5022964;28;20038;-78
2022/07/12 10:01:24;;;;;;;0.00;0.00;;;23.10;73.80;;;;;;5022379;28;20079;-75
2022/07/12 10:03:55;;;;;;;0.00;0.00;;;22.80;74.90;;;;;;5005607;28;20037;-78
2022/07/12 10:06:29;;;;;;;0.00;0.00;;;22.90;74.80;;;;;;5006005;28;20693;-77
2022/07/12 10:08:56;;;;;;;0.10;0.10;;;24.00;73.30;;;;;;5004576;28;20033;-76
2022/07/12 10:11:23;;;;;;;0.05;0.05;;;24.60;70.30;;;;;;5023743;28;20116;-76
2022/07/12 10:13:49;;;;;;;0.00;0.00;;;24.60;68.30;;;;;;5023358;28;20045;-77
2022/07/12 10:16:24;;;;;;;0.10;0.10;;;24.30;69.00;;;;;;5005307;28;20499;-77
2022/07/12 10:19:23;;;;;;;0.00;0.00;;;23.90;70.10;;;;;;5022577;28;20060;-77
2022/07/12 10:21:51;;;;;;;0.00;0.00;;;23.70;71.80;;;;;;5023119;28;20303;-77
2022/07/12 10:24:35;;;;;;;0.30;0.30;;;23.30;71.50;;;;;;5021645;28;20033;-76
2022/07/12 10:27:13;;;;;;;0.00;0.00;;;23.70;71.60;;;;;;4989073;28;20397;-77
2022/07/12 10:29:43;;;;;;;0.00;0.00;;;24.50;68.00;;;;;;5022482;28;20664;-77
2022/07/12 10:32:34;;;;;;;0.10;0.10;;;24.70;67.40;;;;;;5022420;28;20461;-76
2022/07/12 10:35:00;;;;;;;0.10;0.10;;;24.10;68.50;;;;;;5004718;28;20465;-77
2022/07/12 10:37:28;;;;;;;0.00;0.00;;;24.50;68.50;;;;;;5004872;28;20508;-77
2022/07/12 10:40:15;;;;;;;0.08;0.08;;;24.90;63.70;;;;;;5022179;28;20029;-77
2022/07/12 10:43:04;;;;;;;10.00;3.25;;;25.30;63.50;;;;;;5002655;28;20579;-77
2022/07/12 10:45:34;;;;;;;0.03;0.03;;;24.80;61.40;;;;;;5004913;28;20596;-78
2022/07/12 10:48:06;;;;;;;0.00;0.00;;;24.30;64.70;;;;;;5005053;28;20213;-78
2022/07/12 10:50:41;;;;;;;0.00;0.00;;;24.50;66.00;;;;;;5021437;28;20036;-78
2022/07/12 10:53:34;;;;;;;0.00;0.00;;;24.60;65.70;;;;;;5021983;28;20037;-78
2022/07/12 10:56:19;;;;;;;0.17;0.17;;;24.30;66.20;;;;;;5009845;28;20528;-79
2022/07/12 10:58:49;;;;;;;0.30;0.30;;;24.10;67.50;;;;;;5004509;28;20041;-77
2022/07/12 11:01:23;;;;;;;0.00;0.00;;;24.30;67.10;;;;;;5021201;28;20040;-77
2022/07/12 11:04:07;;;;;;;0.10;0.10;;;24.40;66.60;;;;;;5021495;28;20079;-77
2022/07/12 11:06:40;;;;;;;0.22;0.22;;;25.10;63.60;;;;;;5022071;28;20354;-78
2022/07/12 11:09:08;;;;;;;0.10;0.10;;;25.50;62.20;;;;;;5021769;28;20445;-77
2022/07/12 11:11:35;;;;;;;0.00;0.00;;;25.70;60.00;;;;;;5003954;28;20394;-78
2022/07/12 11:14:02;;;;;;;0.00;0.00;;;26.00;60.50;;;;;;5022914;28;20095;-77
2022/07/12 11:16:31;;;;;;;0.00;0.00;;;25.50;61.40;;;;;;5020775;28;20033;-78
2022/07/12 11:18:57;;;;;;;0.00;0.00;;;25.00;62.90;;;;;;5003745;28;20087;-77
2022/07/12 11:21:24;;;;;;;0.75;0.35;;;25.50;63.60;;;;;;5003810;28;20037;-77
2022/07/12 11:23:50;;;;;;;0.00;0.00;;;26.00;63.00;;;;;;5021960;28;20044;-77
2022/07/12 11:26:16;;;;;;;0.25;0.25;;;26.40;62.50;;;;;;5022814;28;20397;-76
2022/07/12 11:28:44;;;;;;;0.00;0.00;;;26.00;61.10;;;;;;4988202;28;20029;-76
2022/07/12 11:31:11;;;;;;;0.00;0.00;;;25.80;62.00;;;;;;5021471;28;20033;-77
2022/07/12 11:33:42;;;;;;;0.00;0.00;;;26.50;59.00;;;;;;5003808;28;20040;-78
2022/07/12 11:36:10;;;;;;;0.00;0.00;;;26.80;59.40;;;;;;4987479;28;20041;-77
2022/07/12 11:38:38;;;;;;;0.10;0.10;;;27.20;58.30;;;;;;5004486;28;20067;-77
2022/07/12 11:41:06;;;;;;;0.10;0.10;;;27.40;57.80;;;;;;5021476;28;20044;-76
2022/07/12 11:43:33;;;;;;;3.55;1.42;;;27.60;56.80;;;;;;5004048;28;20132;-77
2022/07/12 11:46:00;;;;;;;0.05;0.05;;;27.50;57.20;;;;;;5002440;28;20025;-78
2022/07/12 11:48:26;;;;;;;0.00;0.00;;;27.40;57.50;;;;;;5003370;28;20389;-78
2022/07/12 11:50:54;;;;;;;0.00;0.00;;;26.90;58.80;;;;;;5020351;28;20890;-77
2022/07/12 11:53:25;;;;;;;0.08;0.08;;;26.50;59.60;;;;;;5022487;28;20388;-77
2022/07/12 11:55:55;;;;;;;2.63;0.73;;;26.10;60.70;;;;;;4987890;28;20026;-77
2022/07/12 11:58:21;;;;;;;5.47;0.65;;;25.50;59.80;;;;;;5022788;28;20411;-77
2022/07/12 12:00:48;;;;;;;0.00;0.00;;;25.10;61.30;;;;;;5021741;28;20045;-75
2022/07/12 12:03:17;;;;;;;0.00;0.00;;;25.30;62.00;;;;;;5019707;28;20037;-77
2022/07/12 12:05:49;;;;;;;0.08;0.08;;;25.70;61.60;;;;;;5004668;28;20026;-77
2022/07/12 12:08:16;;;;;;;0.08;0.08;;;26.20;60.30;;;;;;5023928;28;20021;-77
2022/07/12 12:10:43;;;;;;;0.00;0.00;;;26.40;60.30;;;;;;5005871;28;20025;-78
2022/07/12 12:13:16;;;;;;;2.35;0.38;;;26.40;60.10;;;;;;4988978;28;20033;-78
2022/07/12 12:15:53;;;;;;;0.10;0.10;;;26.20;59.70;;;;;;5022451;28;20034;-78
2022/07/12 12:18:39;;;;;;;0.00;0.00;;;26.30;59.20;;;;;;5024413;28;20029;-77
2022/07/12 12:21:10;;;;;;;0.30;0.30;;;26.70;58.60;;;;;;5005449;28;20393;-77
2022/07/12 12:23:37;;;;;;;0.00;0.00;;;26.70;57.90;;;;;;5021643;28;20381;-77
2022/07/12 12:26:16;;;;;;;0.20;0.20;;;26.20;58.80;;;;;;5001397;28;20100;-77
2022/07/12 12:28:42;;;;;;;0.00;0.00;;;25.90;60.00;;;;;;5002607;28;20053;-77
2022/07/12 12:31:09;;;;;;;0.35;0.32;;;25.90;60.70;;;;;;5001900;28;20032;-77
2022/07/12 12:33:40;;;;;;;0.00;0.00;;;25.90;60.70;;;;;;5003251;28;20042;-77
2022/07/12 12:36:19;;;;;;;0.10;0.10;;;25.60;61.00;;;;;;5019434;28;20045;-77
2022/07/12 12:38:45;;;;;;;0.17;0.17;;;25.80;60.00;;;;;;5018991;28;20303;-78
2022/07/12 12:41:13;;;;;;;0.75;0.52;;;25.60;60.40;;;;;;5022353;28;20128;-78
2022/07/12 12:43:39;;;;;;;0.22;0.22;;;25.40;59.50;;;;;;5020714;28;20048;-76
2022/07/12 12:46:05;;;;;;;0.13;0.13;;;25.60;59.60;;;;;;5018928;28;20034;-76
2022/07/12 12:48:32;;;;;;;0.20;0.20;;;25.30;60.20;;;;;;5002133;28;20022;-77
2022/07/12 12:51:10;;;;;;;0.20;0.20;;;25.40;60.70;;;;;;5019051;28;20039;-77
2022/07/12 12:53:38;;;;;;;0.00;0.00;;;25.80;61.10;;;;;;5019551;28;20038;-77
2022/07/12 12:56:14;;;;;;;0.20;0.08;;;26.10;60.10;;;;;;5019249;28;20033;-77
2022/07/12 12:58:41;;;;;;;0.05;0.05;;;26.10;60.10;;;;;;4990723;28;20029;-77
2022/07/12 13:01:08;;;;;;;0.00;0.00;;;25.90;59.70;;;;;;5000667;28;20059;-77
2022/07/12 13:03:33;;;;;;;0.00;0.00;;;25.70;60.20;;;;;;5001400;28;20034;-77
2022/07/12 13:06:01;;;;;;;0.10;0.10;;;25.80;60.60;;;;;;4984841;28;20039;-77
2022/07/12 13:08:27;;;;;;;0.00;0.00;;;26.00;58.70;;;;;;5001466;28;20460;-77
2022/07/12 13:13:39;;;;;;;0.22;0.17;;;25.80;58.50;;;;;;5023016;28;20052;-78
2022/07/12 13:16:05;;;;;;;0.00;0.00;;;25.90;59.60;;;;;;5017892;28;20974;-79
2022/07/12 13:18:31;;;;;;;0.00;0.00;;;26.10;59.30;;;;;;4985001;28;20037;-78
2022/07/12 13:20:57;;;;;;;0.00;0.00;;;26.10;59.70;;;;;;5019115;28;20082;-78
2022/07/12 13:23:23;;;;;;;1.80;0.43;;;25.90;59.20;;;;;;5001055;28;20124;-76
2022/07/12 13:25:49;;;;;;;0.08;0.08;;;25.90;59.20;;;;;;5000284;28;20030;-77
2022/07/12 13:28:14;;;;;;;0.00;0.00;;;25.80;59.30;;;;;;4984740;28;20446;-77
2022/07/12 13:30:40;;;;;;;0.05;0.05;;;25.70;59.00;;;;;;5001295;28;20353;-78
2022/07/12 13:33:06;;;;;;;0.00;0.00;;;25.50;59.80;;;;;;5003288;28;20038;-78
2022/07/12 13:35:32;;;;;;;0.00;0.00;;;25.50;59.20;;;;;;5002644;28;20403;-77
2022/07/12 13:37:57;;;;;;;0.73;0.20;;;25.60;59.20;;;;;;5000538;28;20120;-77
2022/07/12 13:40:24;;;;;;;0.00;0.00;;;25.60;58.30;;;;;;5002851;28;20029;-78
2022/07/12 13:42:51;;;;;;;0.30;0.30;;;25.40;59.70;;;;;;5021716;28;20052;-78
2022/07/12 13:45:18;;;;;;;0.00;0.00;;;25.30;59.10;;;;;;5009704;28;20442;-78
2022/07/12 13:47:45;;;;;;;0.00;0.00;;;25.30;58.00;;;;;;4993091;28;20026;-78
2022/07/12 13:50:14;;;;;;;0.00;0.00;;;25.50;58.50;;;;;;5027065;28;20061;-78
2022/07/12 13:52:41;;;;;;;0.00;0.00;;;25.70;58.70;;;;;;4988001;28;20512;-76
2022/07/12 13:55:09;;;;;;;0.00;0.00;;;25.60;58.60;;;;;;4987665;28;20033;-77
2022/07/12 13:57:36;;;;;;;0.00;0.00;;;25.60;59.00;;;;;;5003845;28;20489;-76
2022/07/12 14:00:05;;;;;;;0.10;0.10;;;25.40;59.30;;;;;;5021682;28;20360;-77
2022/07/12 14:02:30;;;;;;;0.00;0.00;;;25.60;59.00;;;;;;5022606;28;20493;-77
2022/07/12 14:04:56;;;;;;;0.03;0.03;;;25.60;58.50;;;;;;5022102;28;20033;-77
2022/07/12 14:07:22;;;;;;;0.00;0.00;;;25.70;57.80;;;;;;5003673;28;20052;-77
2022/07/12 14:09:48;;;;;;;0.30;0.30;;;25.90;57.30;;;;;;5003698;28;20478;-78
2022/07/12 14:12:14;;;;;;;0.10;0.10;;;25.70;57.80;;;;;;4987119;28;20038;-77
2022/07/12 14:17:24;;;;;;;0.28;0.28;;;25.10;58.20;;;;;;5021956;28;20032;-77
2022/07/12 14:19:50;;;;;;;0.45;0.40;;;25.00;59.60;;;;;;5003562;28;20048;-77
2022/07/12 14:22:15;;;;;;;0.00;0.00;;;24.90;59.90;;;;;;5003329;28;20033;-77
2022/07/12 14:24:41;;;;;;;0.17;0.17;;;25.30;59.60;;;;;;5003719;28;20045;-77
2022/07/12 14:27:07;;;;;;;0.00;0.00;;;25.60;58.80;;;;;;5003193;28;20049;-78
2022/07/12 14:29:33;;;;;;;0.20;0.20;;;25.70;58.00;;;;;;5021210;28;20021;-77
2022/07/12 14:32:01;;;;;;;0.00;0.00;;;25.90;58.30;;;;;;5003740;28;20040;-77
2022/07/12 14:34:26;;;;;;;0.45;0.45;;;25.90;58.30;;;;;;5003248;28;20537;-77
2022/07/12 14:36:52;;;;;;;0.00;0.00;;;25.40;57.60;;;;;;5021576;28;20097;-77